sensor_id;sensor_type;location;lat;lon;timestamp;P1;durP1;ratioP1;P2;durP2;ratioP2
46308;SDS011;32037;50.820;6.494;2022-08-01T00:01:15;1.40;;;1.30;;
46308;SDS011;32037;50.820;6.494;2022-08-01T00:03:43;3.10;;;1.50;;
46308;SDS011;32037;50.820;6.494;2022-08-01T00:06:11;1.40;;;1.20;;
46308;SDS011;32037;50.820;6.494;2022-08-01T00:08:39;1.17;;;1.00;;
46308;SDS011;32037;50.820;6.494;2022-08-01T00:11:09;1.33;;;1.20;;
46308;SDS011;32037;50.820;6.494;2022-08-01T00:13:37;1.40;;;1.30;;
46308;SDS011;32037;50.820;6.494;2022-08-01T00:16:05;1.40;;;1.30;;
46308;SDS011;32037;50.820;6.494;2022-08-01T00:18:33;1.80;;;1.50;;
46308;SDS011;32037;50.820;6.494;2022-08-01T00:21:03;3.30;;;1.23;;
46308;SDS011;32037;50.820;6.494;2022-08-01T00:23:31;1.80;;;1.50;;
46308;SDS011;32037;50.820;6.494;2022-08-01T00:25:59;1.67;;;1.57;;
46308;SDS011;32037;50.820;6.494;2022-08-01T00:28:29;1.37;;;1.27;;
46308;SDS011;32037;50.820;6.494;2022-08-01T00:30:57;1.30;;;1.20;;
46308;SDS011;32037;50.820;6.494;2022-08-01T00:33:25;1.53;;;1.20;;
46308;SDS011;32037;50.820;6.494;2022-08-01T00:35:53;1.23;;;1.10;;
46308;SDS011;32037;50.820;6.494;2022-08-01T00:38:22;1.50;;;1.40;;
46308;SDS011;32037;50.820;6.494;2022-08-01T00:40:51;2.03;;;1.40;;
46308;SDS011;32037;50.820;6.494;2022-08-01T00:43:20;1.50;;;1.40;;
46308;SDS011;32037;50.820;6.494;2022-08-01T00:45:49;2.13;;;1.60;;
46308;SDS011;32037;50.820;6.494;2022-08-01T00:48:18;1.30;;;1.20;;
46308;SDS011;32037;50.820;6.494;2022-08-01T00:50:46;1.20;;;1.10;;
46308;SDS011;32037;50.820;6.494;2022-08-01T00:53:14;1.20;;;1.10;;
46308;SDS011;32037;50.820;6.494;2022-08-01T00:55:44;1.43;;;1.33;;
46308;SDS011;32037;50.820;6.494;2022-08-01T00:58:14;1.00;;;0.90;;
46308;SDS011;32037;50.820;6.494;2022-08-01T01:00:43;1.30;;;1.13;;
46308;SDS011;32037;50.820;6.494;2022-08-01T01:03:24;1.73;;;1.63;;
46308;SDS011;32037;50.820;6.494;2022-08-01T01:06:16;2.00;;;1.30;;
46308;SDS011;32037;50.820;6.494;2022-08-01T01:09:16;1.80;;;1.33;;
46308;SDS011;32037;50.820;6.494;2022-08-01T01:12:01;1.60;;;1.50;;
46308;SDS011;32037;50.820;6.494;2022-08-01T01:14:36;1.43;;;0.97;;
46308;SDS011;32037;50.820;6.494;2022-08-01T01:17:24;1.13;;;1.03;;
46308;SDS011;32037;50.820;6.494;2022-08-01T01:20:16;1.20;;;1.10;;
46308;SDS011;32037;50.820;6.494;2022-08-01T01:22:49;1.77;;;1.10;;
46308;SDS011;32037;50.820;6.494;2022-08-01T01:28:25;2.47;;;1.47;;
46308;SDS011;32037;50.820;6.494;2022-08-01T01:31:02;1.43;;;1.33;;
46308;SDS011;32037;50.820;6.494;2022-08-01T01:33:36;1.50;;;1.40;;
46308;SDS011;32037;50.820;6.494;2022-08-01T01:36:13;1.53;;;1.43;;
46308;SDS011;32037;50.820;6.494;2022-08-01T01:38:44;1.93;;;1.13;;
46308;SDS011;32037;50.820;6.494;2022-08-01T01:41:15;1.30;;;1.20;;
46308;SDS011;32037;50.820;6.494;2022-08-01T01:43:45;1.33;;;1.10;;
46308;SDS011;32037;50.820;6.494;2022-08-01T01:46:16;1.23;;;1.13;;
46308;SDS011;32037;50.820;6.494;2022-08-01T01:48:49;1.47;;;1.00;;
46308;SDS011;32037;50.820;6.494;2022-08-01T01:51:17;1.60;;;1.23;;
46308;SDS011;32037;50.820;6.494;2022-08-01T01:53:49;1.40;;;1.30;;
46308;SDS011;32037;50.820;6.494;2022-08-01T01:56:20;1.30;;;1.20;;
46308;SDS011;32037;50.820;6.494;2022-08-01T01:58:49;1.33;;;1.20;;
46308;SDS011;32037;50.820;6.494;2022-08-01T02:01:21;1.00;;;1.00;;
46308;SDS011;32037;50.820;6.494;2022-08-01T02:04:12;1.80;;;1.53;;
46308;SDS011;32037;50.820;6.494;2022-08-01T02:06:41;1.43;;;1.10;;
46308;SDS011;32037;50.820;6.494;2022-08-01T02:09:10;1.37;;;1.27;;
46308;SDS011;32037;50.820;6.494;2022-08-01T02:11:40;1.13;;;1.03;;
46308;SDS011;32037;50.820;6.494;2022-08-01T02:14:30;1.10;;;1.00;;
46308;SDS011;32037;50.820;6.494;2022-08-01T02:17:03;0.97;;;0.97;;
46308;SDS011;32037;50.820;6.494;2022-08-01T02:19:32;1.10;;;1.00;;
46308;SDS011;32037;50.820;6.494;2022-08-01T02:22:04;1.13;;;0.90;;
46308;SDS011;32037;50.820;6.494;2022-08-01T02:24:37;1.30;;;1.13;;
46308;SDS011;32037;50.820;6.494;2022-08-01T02:27:09;1.43;;;1.33;;
46308;SDS011;32037;50.820;6.494;2022-08-01T02:29:41;1.27;;;1.17;;
46308;SDS011;32037;50.820;6.494;2022-08-01T02:32:14;1.27;;;1.17;;
46308;SDS011;32037;50.820;6.494;2022-08-01T02:34:47;2.70;;;1.40;;
46308;SDS011;32037;50.820;6.494;2022-08-01T02:37:18;1.47;;;1.10;;
46308;SDS011;32037;50.820;6.494;2022-08-01T02:39:48;1.80;;;1.30;;
46308;SDS011;32037;50.820;6.494;2022-08-01T02:42:20;0.90;;;0.90;;
46308;SDS011;32037;50.820;6.494;2022-08-01T02:44:52;1.27;;;1.17;;
46308;SDS011;32037;50.820;6.494;2022-08-01T02:47:23;1.23;;;1.13;;
46308;SDS011;32037;50.820;6.494;2022-08-01T02:49:55;1.10;;;0.97;;
46308;SDS011;32037;50.820;6.494;2022-08-01T02:52:24;1.20;;;1.10;;
46308;SDS011;32037;50.820;6.494;2022-08-01T02:54:54;1.10;;;1.00;;
46308;SDS011;32037;50.820;6.494;2022-08-01T02:57:24;1.17;;;1.07;;
46308;SDS011;32037;50.820;6.494;2022-08-01T03:00:13;1.40;;;1.13;;
46308;SDS011;32037;50.820;6.494;2022-08-01T03:02:44;1.27;;;1.17;;
46308;SDS011;32037;50.820;6.494;2022-08-01T03:05:16;1.27;;;1.17;;
46308;SDS011;32037;50.820;6.494;2022-08-01T03:07:45;1.97;;;1.30;;
46308;SDS011;32037;50.820;6.494;2022-08-01T03:10:14;1.13;;;1.03;;
46308;SDS011;32037;50.820;6.494;2022-08-01T03:12:44;0.90;;;0.90;;
46308;SDS011;32037;50.820;6.494;2022-08-01T03:15:14;1.40;;;1.30;;
46308;SDS011;32037;50.820;6.494;2022-08-01T03:17:45;1.37;;;1.20;;
46308;SDS011;32037;50.820;6.494;2022-08-01T03:20:16;1.00;;;1.00;;
46308;SDS011;32037;50.820;6.494;2022-08-01T03:22:46;1.67;;;1.50;;
46308;SDS011;32037;50.820;6.494;2022-08-01T03:25:17;1.23;;;1.13;;
46308;SDS011;32037;50.820;6.494;2022-08-01T03:27:47;1.33;;;1.20;;
46308;SDS011;32037;50.820;6.494;2022-08-01T03:30:22;1.40;;;1.30;;
46308;SDS011;32037;50.820;6.494;2022-08-01T03:32:53;1.37;;;1.20;;
46308;SDS011;32037;50.820;6.494;2022-08-01T03:35:22;1.23;;;1.13;;
46308;SDS011;32037;50.820;6.494;2022-08-01T03:37:54;1.20;;;1.10;;
46308;SDS011;32037;50.820;6.494;2022-08-01T03:40:43;1.37;;;1.27;;
46308;SDS011;32037;50.820;6.494;2022-08-01T03:43:16;1.43;;;1.07;;
46308;SDS011;32037;50.820;6.494;2022-08-01T03:45:48;1.23;;;1.13;;
46308;SDS011;32037;50.820;6.494;2022-08-01T03:48:22;1.90;;;1.80;;
46308;SDS011;32037;50.820;6.494;2022-08-01T03:50:55;1.10;;;1.00;;
46308;SDS011;32037;50.820;6.494;2022-08-01T03:53:26;1.40;;;1.27;;
46308;SDS011;32037;50.820;6.494;2022-08-01T03:55:58;1.30;;;1.20;;
46308;SDS011;32037;50.820;6.494;2022-08-01T03:58:28;1.23;;;1.13;;
46308;SDS011;32037;50.820;6.494;2022-08-01T04:00:57;1.20;;;1.10;;
46308;SDS011;32037;50.820;6.494;2022-08-01T04:03:27;1.13;;;1.03;;
46308;SDS011;32037;50.820;6.494;2022-08-01T04:05:55;1.40;;;1.30;;
46308;SDS011;32037;50.820;6.494;2022-08-01T04:08:33;1.10;;;1.00;;
46308;SDS011;32037;50.820;6.494;2022-08-01T04:11:02;1.33;;;1.23;;
46308;SDS011;32037;50.820;6.494;2022-08-01T04:13:30;1.73;;;1.10;;
46308;SDS011;32037;50.820;6.494;2022-08-01T04:16:03;1.17;;;1.07;;
46308;SDS011;32037;50.820;6.494;2022-08-01T04:18:32;1.30;;;1.20;;
46308;SDS011;32037;50.820;6.494;2022-08-01T04:21:01;1.57;;;1.47;;
46308;SDS011;32037;50.820;6.494;2022-08-01T04:23:29;1.30;;;1.20;;
46308;SDS011;32037;50.820;6.494;2022-08-01T04:26:00;1.53;;;1.30;;
46308;SDS011;32037;50.820;6.494;2022-08-01T04:28:31;1.20;;;1.10;;
46308;SDS011;32037;50.820;6.494;2022-08-01T04:31:01;1.10;;;1.00;;
46308;SDS011;32037;50.820;6.494;2022-08-01T04:33:34;1.37;;;1.27;;
46308;SDS011;32037;50.820;6.494;2022-08-01T04:36:03;1.53;;;1.43;;
46308;SDS011;32037;50.820;6.494;2022-08-01T04:38:33;1.23;;;1.13;;
46308;SDS011;32037;50.820;6.494;2022-08-01T04:41:03;1.10;;;1.00;;
46308;SDS011;32037;50.820;6.494;2022-08-01T04:43:35;1.17;;;1.07;;
46308;SDS011;32037;50.820;6.494;2022-08-01T04:46:03;1.47;;;1.00;;
46308;SDS011;32037;50.820;6.494;2022-08-01T04:48:36;1.63;;;1.27;;
46308;SDS011;32037;50.820;6.494;2022-08-01T04:51:10;2.53;;;1.00;;
46308;SDS011;32037;50.820;6.494;2022-08-01T04:53:41;2.07;;;1.63;;
46308;SDS011;32037;50.820;6.494;2022-08-01T04:56:10;1.93;;;1.10;;
46308;SDS011;32037;50.820;6.494;2022-08-01T04:58:39;1.27;;;1.20;;
46308;SDS011;32037;50.820;6.494;2022-08-01T05:01:08;1.40;;;1.30;;
46308;SDS011;32037;50.820;6.494;2022-08-01T05:03:39;1.23;;;1.13;;
46308;SDS011;32037;50.820;6.494;2022-08-01T05:06:07;1.20;;;1.10;;
46308;SDS011;32037;50.820;6.494;2022-08-01T05:08:35;1.10;;;1.00;;
46308;SDS011;32037;50.820;6.494;2022-08-01T05:11:03;1.20;;;1.10;;
46308;SDS011;32037;50.820;6.494;2022-08-01T05:13:31;1.67;;;1.57;;
46308;SDS011;32037;50.820;6.494;2022-08-01T05:15:59;1.53;;;1.43;;
46308;SDS011;32037;50.820;6.494;2022-08-01T05:18:29;1.33;;;1.23;;
46308;SDS011;32037;50.820;6.494;2022-08-01T05:20:59;1.70;;;1.60;;
46308;SDS011;32037;50.820;6.494;2022-08-01T05:23:28;2.07;;;1.20;;
46308;SDS011;32037;50.820;6.494;2022-08-01T05:26:08;1.40;;;1.30;;
46308;SDS011;32037;50.820;6.494;2022-08-01T05:28:40;1.20;;;1.10;;
46308;SDS011;32037;50.820;6.494;2022-08-01T05:31:08;2.90;;;1.83;;
46308;SDS011;32037;50.820;6.494;2022-08-01T05:33:36;2.57;;;1.30;;
46308;SDS011;32037;50.820;6.494;2022-08-01T05:36:06;1.23;;;1.10;;
46308;SDS011;32037;50.820;6.494;2022-08-01T05:38:34;1.80;;;1.57;;
46308;SDS011;32037;50.820;6.494;2022-08-01T05:41:02;1.57;;;1.37;;
46308;SDS011;32037;50.820;6.494;2022-08-01T05:43:30;1.20;;;1.10;;
46308;SDS011;32037;50.820;6.494;2022-08-01T05:45:58;1.13;;;1.03;;
46308;SDS011;32037;50.820;6.494;2022-08-01T05:48:27;1.70;;;1.53;;
46308;SDS011;32037;50.820;6.494;2022-08-01T05:50:56;1.80;;;1.67;;
46308;SDS011;32037;50.820;6.494;2022-08-01T05:53:26;2.13;;;1.67;;
46308;SDS011;32037;50.820;6.494;2022-08-01T05:55:54;1.67;;;1.40;;
46308;SDS011;32037;50.820;6.494;2022-08-01T05:58:22;2.40;;;1.43;;
46308;SDS011;32037;50.820;6.494;2022-08-01T06:00:51;2.10;;;1.67;;
46308;SDS011;32037;50.820;6.494;2022-08-01T06:03:19;1.67;;;1.57;;
46308;SDS011;32037;50.820;6.494;2022-08-01T06:05:47;1.73;;;1.63;;
46308;SDS011;32037;50.820;6.494;2022-08-01T06:08:15;2.57;;;2.13;;
46308;SDS011;32037;50.820;6.494;2022-08-01T06:10:45;1.83;;;1.27;;
46308;SDS011;32037;50.820;6.494;2022-08-01T06:13:13;1.60;;;1.50;;
46308;SDS011;32037;50.820;6.494;2022-08-01T06:15:41;1.87;;;1.77;;
46308;SDS011;32037;50.820;6.494;2022-08-01T06:18:09;1.90;;;1.80;;
46308;SDS011;32037;50.820;6.494;2022-08-01T06:20:37;1.80;;;1.70;;
46308;SDS011;32037;50.820;6.494;2022-08-01T06:23:05;1.70;;;1.60;;
46308;SDS011;32037;50.820;6.494;2022-08-01T06:25:55;2.80;;;2.13;;
46308;SDS011;32037;50.820;6.494;2022-08-01T06:28:24;1.87;;;1.77;;
46308;SDS011;32037;50.820;6.494;2022-08-01T06:30:52;2.40;;;1.80;;
46308;SDS011;32037;50.820;6.494;2022-08-01T06:33:20;2.43;;;2.23;;
46308;SDS011;32037;50.820;6.494;2022-08-01T06:35:48;1.93;;;1.80;;
46308;SDS011;32037;50.820;6.494;2022-08-01T06:38:16;2.37;;;2.10;;
46308;SDS011;32037;50.820;6.494;2022-08-01T06:40:45;2.53;;;1.80;;
46308;SDS011;32037;50.820;6.494;2022-08-01T06:43:14;1.70;;;1.60;;
46308;SDS011;32037;50.820;6.494;2022-08-01T06:45:42;1.87;;;1.77;;
46308;SDS011;32037;50.820;6.494;2022-08-01T06:48:13;2.50;;;2.30;;
46308;SDS011;32037;50.820;6.494;2022-08-01T06:50:41;1.90;;;1.80;;
46308;SDS011;32037;50.820;6.494;2022-08-01T06:53:09;1.90;;;1.80;;
46308;SDS011;32037;50.820;6.494;2022-08-01T06:55:37;2.10;;;1.83;;
46308;SDS011;32037;50.820;6.494;2022-08-01T06:58:06;1.47;;;1.37;;
46308;SDS011;32037;50.820;6.494;2022-08-01T07:00:35;1.70;;;1.60;;
46308;SDS011;32037;50.820;6.494;2022-08-01T07:03:03;1.60;;;1.50;;
46308;SDS011;32037;50.820;6.494;2022-08-01T07:05:31;1.73;;;1.60;;
46308;SDS011;32037;50.820;6.494;2022-08-01T07:07:59;3.03;;;1.70;;
46308;SDS011;32037;50.820;6.494;2022-08-01T07:10:27;1.53;;;1.43;;
46308;SDS011;32037;50.820;6.494;2022-08-01T07:12:56;1.53;;;1.43;;
46308;SDS011;32037;50.820;6.494;2022-08-01T07:15:24;1.57;;;1.47;;
46308;SDS011;32037;50.820;6.494;2022-08-01T07:17:54;1.70;;;1.60;;
46308;SDS011;32037;50.820;6.494;2022-08-01T07:20:23;2.03;;;1.50;;
46308;SDS011;32037;50.820;6.494;2022-08-01T07:22:51;1.90;;;1.80;;
46308;SDS011;32037;50.820;6.494;2022-08-01T07:25:22;2.00;;;1.63;;
46308;SDS011;32037;50.820;6.494;2022-08-01T07:27:50;1.80;;;1.70;;
46308;SDS011;32037;50.820;6.494;2022-08-01T07:30:18;1.70;;;1.60;;
46308;SDS011;32037;50.820;6.494;2022-08-01T07:32:46;1.97;;;1.87;;
46308;SDS011;32037;50.820;6.494;2022-08-01T07:35:15;2.20;;;2.10;;
46308;SDS011;32037;50.820;6.494;2022-08-01T07:37:43;1.97;;;1.87;;
46308;SDS011;32037;50.820;6.494;2022-08-01T07:40:15;2.10;;;2.00;;
46308;SDS011;32037;50.820;6.494;2022-08-01T07:42:44;2.07;;;1.80;;
46308;SDS011;32037;50.820;6.494;2022-08-01T07:45:12;1.40;;;1.30;;
46308;SDS011;32037;50.820;6.494;2022-08-01T07:47:41;1.93;;;1.73;;
46308;SDS011;32037;50.820;6.494;2022-08-01T07:50:09;2.20;;;1.80;;
46308;SDS011;32037;50.820;6.494;2022-08-01T07:52:40;1.70;;;1.57;;
46308;SDS011;32037;50.820;6.494;2022-08-01T07:55:08;1.80;;;1.70;;
46308;SDS011;32037;50.820;6.494;2022-08-01T07:57:42;1.93;;;1.83;;
46308;SDS011;32037;50.820;6.494;2022-08-01T08:00:10;2.00;;;1.90;;
46308;SDS011;32037;50.820;6.494;2022-08-01T08:02:40;2.57;;;1.43;;
46308;SDS011;32037;50.820;6.494;2022-08-01T08:05:08;2.30;;;1.80;;
46308;SDS011;32037;50.820;6.494;2022-08-01T08:07:37;2.97;;;2.20;;
46308;SDS011;32037;50.820;6.494;2022-08-01T08:10:07;2.33;;;2.13;;
46308;SDS011;32037;50.820;6.494;2022-08-01T08:12:35;1.77;;;1.67;;
46308;SDS011;32037;50.820;6.494;2022-08-01T08:15:04;2.00;;;1.80;;
46308;SDS011;32037;50.820;6.494;2022-08-01T08:17:33;5.00;;;2.60;;
46308;SDS011;32037;50.820;6.494;2022-08-01T08:20:02;2.90;;;1.80;;
46308;SDS011;32037;50.820;6.494;2022-08-01T08:22:35;2.43;;;2.10;;
46308;SDS011;32037;50.820;6.494;2022-08-01T08:25:04;3.40;;;2.37;;
46308;SDS011;32037;50.820;6.494;2022-08-01T08:27:34;2.87;;;2.07;;
46308;SDS011;32037;50.820;6.494;2022-08-01T08:30:04;2.67;;;2.30;;
46308;SDS011;32037;50.820;6.494;2022-08-01T08:32:34;2.23;;;2.07;;
46308;SDS011;32037;50.820;6.494;2022-08-01T08:35:03;2.10;;;1.93;;
46308;SDS011;32037;50.820;6.494;2022-08-01T08:37:32;2.73;;;2.40;;
46308;SDS011;32037;50.820;6.494;2022-08-01T08:40:05;2.93;;;2.60;;
46308;SDS011;32037;50.820;6.494;2022-08-01T08:42:35;2.53;;;2.33;;
46308;SDS011;32037;50.820;6.494;2022-08-01T08:45:07;2.47;;;2.27;;
46308;SDS011;32037;50.820;6.494;2022-08-01T08:47:37;1.97;;;1.80;;
46308;SDS011;32037;50.820;6.494;2022-08-01T08:50:06;3.93;;;2.83;;
46308;SDS011;32037;50.820;6.494;2022-08-01T08:52:35;2.43;;;2.00;;
46308;SDS011;32037;50.820;6.494;2022-08-01T08:55:08;2.30;;;2.10;;
46308;SDS011;32037;50.820;6.494;2022-08-01T08:57:38;2.33;;;2.13;;
46308;SDS011;32037;50.820;6.494;2022-08-01T09:00:08;3.23;;;2.10;;
46308;SDS011;32037;50.820;6.494;2022-08-01T09:02:40;2.50;;;2.30;;
46308;SDS011;32037;50.820;6.494;2022-08-01T09:05:09;2.23;;;2.03;;
46308;SDS011;32037;50.820;6.494;2022-08-01T09:07:44;3.70;;;2.50;;
46308;SDS011;32037;50.820;6.494;2022-08-01T09:10:14;2.90;;;2.70;;
46308;SDS011;32037;50.820;6.494;2022-08-01T09:15:37;3.40;;;2.83;;
46308;SDS011;32037;50.820;6.494;2022-08-01T09:21:10;2.87;;;2.67;;
46308;SDS011;32037;50.820;6.494;2022-08-01T09:23:41;2.87;;;2.67;;
46308;SDS011;32037;50.820;6.494;2022-08-01T09:26:27;2.90;;;2.60;;
46308;SDS011;32037;50.820;6.494;2022-08-01T09:29:00;2.40;;;2.20;;
46308;SDS011;32037;50.820;6.494;2022-08-01T09:31:38;2.77;;;2.50;;
46308;SDS011;32037;50.820;6.494;2022-08-01T09:34:13;2.80;;;2.17;;
46308;SDS011;32037;50.820;6.494;2022-08-01T09:36:46;2.60;;;2.40;;
46308;SDS011;32037;50.820;6.494;2022-08-01T09:39:20;3.30;;;3.00;;
46308;SDS011;32037;50.820;6.494;2022-08-01T09:41:51;2.77;;;2.57;;
46308;SDS011;32037;50.820;6.494;2022-08-01T09:44:36;2.17;;;2.07;;
46308;SDS011;32037;50.820;6.494;2022-08-01T09:47:08;2.80;;;2.60;;
46308;SDS011;32037;50.820;6.494;2022-08-01T09:49:41;3.03;;;2.83;;
46308;SDS011;32037;50.820;6.494;2022-08-01T09:52:17;2.83;;;2.63;;
46308;SDS011;32037;50.820;6.494;2022-08-01T09:54:52;2.80;;;2.60;;
46308;SDS011;32037;50.820;6.494;2022-08-01T09:57:23;3.07;;;2.80;;
46308;SDS011;32037;50.820;6.494;2022-08-01T09:59:52;2.80;;;2.60;;
46308;SDS011;32037;50.820;6.494;2022-08-01T10:02:27;3.30;;;2.80;;
46308;SDS011;32037;50.820;6.494;2022-08-01T10:04:57;2.47;;;2.00;;
46308;SDS011;32037;50.820;6.494;2022-08-01T10:07:33;3.37;;;3.07;;
46308;SDS011;32037;50.820;6.494;2022-08-01T10:10:10;2.50;;;2.30;;
46308;SDS011;32037;50.820;6.494;2022-08-01T10:12:42;2.10;;;1.90;;
46308;SDS011;32037;50.820;6.494;2022-08-01T10:15:13;3.30;;;3.00;;
46308;SDS011;32037;50.820;6.494;2022-08-01T10:17:46;2.23;;;2.03;;
46308;SDS011;32037;50.820;6.494;2022-08-01T10:20:23;2.73;;;2.53;;
46308;SDS011;32037;50.820;6.494;2022-08-01T10:22:58;2.43;;;2.23;;
46308;SDS011;32037;50.820;6.494;2022-08-01T10:25:33;2.00;;;1.90;;
46308;SDS011;32037;50.820;6.494;2022-08-01T10:28:13;2.10;;;2.00;;
46308;SDS011;32037;50.820;6.494;2022-08-01T10:30:45;2.50;;;2.30;;
46308;SDS011;32037;50.820;6.494;2022-08-01T10:33:14;3.10;;;2.30;;
46308;SDS011;32037;50.820;6.494;2022-08-01T10:36:04;2.20;;;2.10;;
46308;SDS011;32037;50.820;6.494;2022-08-01T10:38:34;3.27;;;3.07;;
46308;SDS011;32037;50.820;6.494;2022-08-01T10:41:03;3.23;;;2.93;;
46308;SDS011;32037;50.820;6.494;2022-08-01T10:43:35;2.90;;;2.70;;
46308;SDS011;32037;50.820;6.494;2022-08-01T10:46:04;3.20;;;2.17;;
46308;SDS011;32037;50.820;6.494;2022-08-01T10:48:35;2.90;;;2.60;;
46308;SDS011;32037;50.820;6.494;2022-08-01T10:51:10;2.43;;;2.23;;
46308;SDS011;32037;50.820;6.494;2022-08-01T10:53:47;2.40;;;2.20;;
46308;SDS011;32037;50.820;6.494;2022-08-01T10:56:20;2.10;;;2.00;;
46308;SDS011;32037;50.820;6.494;2022-08-01T10:59:00;2.47;;;2.30;;
46308;SDS011;32037;50.820;6.494;2022-08-01T11:01:37;2.67;;;2.47;;
46308;SDS011;32037;50.820;6.494;2022-08-01T11:04:11;2.60;;;2.40;;
46308;SDS011;32037;50.820;6.494;2022-08-01T11:09:39;2.10;;;2.00;;
46308;SDS011;32037;50.820;6.494;2022-08-01T11:12:16;2.20;;;2.10;;
46308;SDS011;32037;50.820;6.494;2022-08-01T11:17:59;2.40;;;2.20;;
46308;SDS011;32037;50.820;6.494;2022-08-01T11:20:30;2.10;;;2.00;;
46308;SDS011;32037;50.820;6.494;2022-08-01T11:23:16;2.00;;;1.90;;
46308;SDS011;32037;50.820;6.494;2022-08-01T11:28:43;2.33;;;2.23;;
46308;SDS011;32037;50.820;6.494;2022-08-01T11:31:35;2.30;;;2.10;;
46308;SDS011;32037;50.820;6.494;2022-08-01T11:34:03;2.27;;;2.17;;
46308;SDS011;32037;50.820;6.494;2022-08-01T11:36:32;2.17;;;2.07;;
46308;SDS011;32037;50.820;6.494;2022-08-01T11:39:20;2.90;;;2.70;;
46308;SDS011;32037;50.820;6.494;2022-08-01T11:41:50;2.20;;;2.10;;
46308;SDS011;32037;50.820;6.494;2022-08-01T11:44:20;2.57;;;2.37;;
46308;SDS011;32037;50.820;6.494;2022-08-01T11:46:54;2.70;;;2.50;;
46308;SDS011;32037;50.820;6.494;2022-08-01T11:49:26;2.53;;;2.33;;
46308;SDS011;32037;50.820;6.494;2022-08-01T11:52:00;2.43;;;2.23;;
46308;SDS011;32037;50.820;6.494;2022-08-01T11:54:32;2.90;;;2.23;;
46308;SDS011;32037;50.820;6.494;2022-08-01T11:57:03;2.93;;;2.73;;
46308;SDS011;32037;50.820;6.494;2022-08-01T11:59:35;3.05;;;2.85;;
46308;SDS011;32037;50.820;6.494;2022-08-01T12:02:40;3.00;;;2.80;;
46308;SDS011;32037;50.820;6.494;2022-08-01T12:05:11;2.80;;;2.60;;
46308;SDS011;32037;50.820;6.494;2022-08-01T12:07:41;2.47;;;2.30;;
46308;SDS011;32037;50.820;6.494;2022-08-01T12:10:12;2.33;;;2.13;;
46308;SDS011;32037;50.820;6.494;2022-08-01T12:12:43;2.60;;;2.40;;
46308;SDS011;32037;50.820;6.494;2022-08-01T12:15:12;2.90;;;2.70;;
46308;SDS011;32037;50.820;6.494;2022-08-01T12:17:42;2.50;;;2.30;;
46308;SDS011;32037;50.820;6.494;2022-08-01T12:20:23;2.77;;;2.57;;
46308;SDS011;32037;50.820;6.494;2022-08-01T12:22:56;2.80;;;2.60;;
46308;SDS011;32037;50.820;6.494;2022-08-01T12:25:25;3.87;;;2.83;;
46308;SDS011;32037;50.820;6.494;2022-08-01T12:27:53;3.10;;;2.47;;
46308;SDS011;32037;50.820;6.494;2022-08-01T12:30:24;2.90;;;2.70;;
46308;SDS011;32037;50.820;6.494;2022-08-01T12:32:54;2.80;;;2.60;;
46308;SDS011;32037;50.820;6.494;2022-08-01T12:35:23;2.80;;;2.40;;
46308;SDS011;32037;50.820;6.494;2022-08-01T12:37:53;2.43;;;2.10;;
46308;SDS011;32037;50.820;6.494;2022-08-01T12:40:23;2.67;;;2.47;;
46308;SDS011;32037;50.820;6.494;2022-08-01T12:42:54;2.40;;;2.30;;
46308;SDS011;32037;50.820;6.494;2022-08-01T12:45:24;2.43;;;2.23;;
46308;SDS011;32037;50.820;6.494;2022-08-01T12:47:55;2.87;;;2.57;;
46308;SDS011;32037;50.820;6.494;2022-08-01T12:50:26;2.40;;;2.20;;
46308;SDS011;32037;50.820;6.494;2022-08-01T12:52:57;2.40;;;2.20;;
46308;SDS011;32037;50.820;6.494;2022-08-01T12:55:26;2.10;;;2.00;;
46308;SDS011;32037;50.820;6.494;2022-08-01T12:58:03;2.53;;;2.33;;
46308;SDS011;32037;50.820;6.494;2022-08-01T13:00:36;2.20;;;2.10;;
46308;SDS011;32037;50.820;6.494;2022-08-01T13:03:07;2.17;;;2.07;;
46308;SDS011;32037;50.820;6.494;2022-08-01T13:05:42;2.80;;;2.60;;
46308;SDS011;32037;50.820;6.494;2022-08-01T13:08:12;2.40;;;2.20;;
46308;SDS011;32037;50.820;6.494;2022-08-01T13:10:41;2.27;;;2.07;;
46308;SDS011;32037;50.820;6.494;2022-08-01T13:13:10;4.70;;;2.90;;
46308;SDS011;32037;50.820;6.494;2022-08-01T13:16:02;2.83;;;2.63;;
46308;SDS011;32037;50.820;6.494;2022-08-01T13:18:33;2.50;;;2.30;;
46308;SDS011;32037;50.820;6.494;2022-08-01T13:21:09;2.63;;;2.43;;
46308;SDS011;32037;50.820;6.494;2022-08-01T13:23:38;2.83;;;2.63;;
46308;SDS011;32037;50.820;6.494;2022-08-01T13:26:40;2.20;;;2.00;;
46308;SDS011;32037;50.820;6.494;2022-08-01T13:29:09;2.33;;;2.13;;
46308;SDS011;32037;50.820;6.494;2022-08-01T13:31:39;2.13;;;1.93;;
46308;SDS011;32037;50.820;6.494;2022-08-01T13:34:09;2.50;;;2.30;;
46308;SDS011;32037;50.820;6.494;2022-08-01T13:36:38;2.80;;;2.60;;
46308;SDS011;32037;50.820;6.494;2022-08-01T13:39:14;2.33;;;2.23;;
46308;SDS011;32037;50.820;6.494;2022-08-01T13:42:00;2.43;;;2.23;;
46308;SDS011;32037;50.820;6.494;2022-08-01T13:44:29;2.70;;;2.50;;
46308;SDS011;32037;50.820;6.494;2022-08-01T13:46:57;2.47;;;2.27;;
46308;SDS011;32037;50.820;6.494;2022-08-01T13:49:27;2.50;;;2.30;;
46308;SDS011;32037;50.820;6.494;2022-08-01T13:52:03;2.13;;;2.03;;
46308;SDS011;32037;50.820;6.494;2022-08-01T13:54:33;2.33;;;2.13;;
46308;SDS011;32037;50.820;6.494;2022-08-01T13:57:01;2.77;;;2.20;;
46308;SDS011;32037;50.820;6.494;2022-08-01T13:59:30;2.77;;;2.57;;
46308;SDS011;32037;50.820;6.494;2022-08-01T14:01:58;2.23;;;2.03;;
46308;SDS011;32037;50.820;6.494;2022-08-01T14:04:27;2.40;;;2.30;;
46308;SDS011;32037;50.820;6.494;2022-08-01T14:06:56;2.40;;;2.20;;
46308;SDS011;32037;50.820;6.494;2022-08-01T14:09:28;2.93;;;2.73;;
46308;SDS011;32037;50.820;6.494;2022-08-01T14:11:58;2.40;;;2.20;;
46308;SDS011;32037;50.820;6.494;2022-08-01T14:14:28;2.63;;;2.50;;
46308;SDS011;32037;50.820;6.494;2022-08-01T14:16:57;2.60;;;2.50;;
46308;SDS011;32037;50.820;6.494;2022-08-01T14:19:25;2.67;;;2.50;;
46308;SDS011;32037;50.820;6.494;2022-08-01T14:22:05;2.50;;;2.30;;
46308;SDS011;32037;50.820;6.494;2022-08-01T14:24:34;2.43;;;2.33;;
46308;SDS011;32037;50.820;6.494;2022-08-01T14:27:04;2.27;;;2.17;;
46308;SDS011;32037;50.820;6.494;2022-08-01T14:29:32;2.70;;;2.53;;
46308;SDS011;32037;50.820;6.494;2022-08-01T14:32:20;2.43;;;2.23;;
46308;SDS011;32037;50.820;6.494;2022-08-01T14:34:55;2.13;;;2.03;;
46308;SDS011;32037;50.820;6.494;2022-08-01T14:37:23;2.63;;;2.43;;
46308;SDS011;32037;50.820;6.494;2022-08-01T14:39:54;2.80;;;2.60;;
46308;SDS011;32037;50.820;6.494;2022-08-01T14:42:24;2.30;;;2.10;;
46308;SDS011;32037;50.820;6.494;2022-08-01T14:44:52;2.70;;;2.50;;
46308;SDS011;32037;50.820;6.494;2022-08-01T14:47:20;2.50;;;2.30;;
46308;SDS011;32037;50.820;6.494;2022-08-01T14:49:48;2.53;;;2.43;;
46308;SDS011;32037;50.820;6.494;2022-08-01T14:52:18;2.83;;;2.63;;
46308;SDS011;32037;50.820;6.494;2022-08-01T14:54:47;2.47;;;2.37;;
46308;SDS011;32037;50.820;6.494;2022-08-01T14:57:15;3.10;;;2.90;;
46308;SDS011;32037;50.820;6.494;2022-08-01T14:59:45;3.20;;;3.00;;
46308;SDS011;32037;50.820;6.494;2022-08-01T15:02:13;2.50;;;2.30;;
46308;SDS011;32037;50.820;6.494;2022-08-01T15:04:43;2.60;;;2.40;;
46308;SDS011;32037;50.820;6.494;2022-08-01T15:07:11;2.40;;;2.30;;
46308;SDS011;32037;50.820;6.494;2022-08-01T15:09:41;2.50;;;2.30;;
46308;SDS011;32037;50.820;6.494;2022-08-01T15:12:09;3.07;;;2.87;;
46308;SDS011;32037;50.820;6.494;2022-08-01T15:14:38;2.40;;;2.30;;
46308;SDS011;32037;50.820;6.494;2022-08-01T15:17:16;2.83;;;2.63;;
46308;SDS011;32037;50.820;6.494;2022-08-01T15:19:45;2.30;;;2.20;;
46308;SDS011;32037;50.820;6.494;2022-08-01T15:22:14;2.97;;;2.33;;
46308;SDS011;32037;50.820;6.494;2022-08-01T15:24:43;2.27;;;2.17;;
46308;SDS011;32037;50.820;6.494;2022-08-01T15:27:11;2.60;;;2.40;;
46308;SDS011;32037;50.820;6.494;2022-08-01T15:29:39;2.17;;;2.07;;
46308;SDS011;32037;50.820;6.494;2022-08-01T15:32:08;2.60;;;2.40;;